sensor_id;sensor_type;location;lat;lon;timestamp;P1;durP1;ratioP1;P2;durP2;ratioP2
12910;SDS011;6523;49.758;6.120;2022-07-10T00:01:23;6.47;;;2.40;;
12910;SDS011;6523;49.758;6.120;2022-07-10T00:03:49;5.30;;;1.90;;
12910;SDS011;6523;49.758;6.120;2022-07-10T00:06:18;5.77;;;1.80;;
12910;SDS011;6523;49.758;6.120;2022-07-10T00:08:43;2.90;;;1.73;;
12910;SDS011;6523;49.758;6.120;2022-07-10T00:11:09;1.90;;;1.70;;
12910;SDS011;6523;49.758;6.120;2022-07-10T00:13:35;3.20;;;1.60;;
12910;SDS011;6523;49.758;6.120;2022-07-10T00:16:01;3.10;;;2.00;;
12910;SDS011;6523;49.758;6.120;2022-07-10T00:18:29;2.30;;;1.97;;
12910;SDS011;6523;49.758;6.120;2022-07-10T00:20:55;4.60;;;1.83;;
12910;SDS011;6523;49.758;6.120;2022-07-10T00:23:21;3.10;;;1.90;;
12910;SDS011;6523;49.758;6.120;2022-07-10T00:25:47;3.03;;;1.70;;
12910;SDS011;6523;49.758;6.120;2022-07-10T00:28:12;3.90;;;1.80;;
12910;SDS011;6523;49.758;6.120;2022-07-10T00:30:38;3.83;;;1.57;;
12910;SDS011;6523;49.758;6.120;2022-07-10T00:33:04;2.00;;;1.80;;
12910;SDS011;6523;49.758;6.120;2022-07-10T00:35:29;3.90;;;1.80;;
12910;SDS011;6523;49.758;6.120;2022-07-10T00:37:55;3.23;;;1.70;;
12910;SDS011;6523;49.758;6.120;2022-07-10T00:40:21;2.93;;;2.00;;
12910;SDS011;6523;49.758;6.120;2022-07-10T00:42:46;2.47;;;1.63;;
12910;SDS011;6523;49.758;6.120;2022-07-10T00:45:12;4.13;;;1.93;;
12910;SDS011;6523;49.758;6.120;2022-07-10T00:47:38;4.23;;;2.10;;
12910;SDS011;6523;49.758;6.120;2022-07-10T00:50:04;2.70;;;1.67;;
12910;SDS011;6523;49.758;6.120;2022-07-10T00:52:31;2.60;;;1.53;;
12910;SDS011;6523;49.758;6.120;2022-07-10T00:55:00;3.97;;;1.60;;
12910;SDS011;6523;49.758;6.120;2022-07-10T00:57:27;2.83;;;1.57;;
12910;SDS011;6523;49.758;6.120;2022-07-10T00:59:52;4.00;;;1.80;;
12910;SDS011;6523;49.758;6.120;2022-07-10T01:02:19;2.20;;;1.77;;
12910;SDS011;6523;49.758;6.120;2022-07-10T01:04:45;2.40;;;1.83;;
12910;SDS011;6523;49.758;6.120;2022-07-10T01:07:11;2.70;;;1.60;;
12910;SDS011;6523;49.758;6.120;2022-07-10T01:09:37;2.70;;;1.80;;
12910;SDS011;6523;49.758;6.120;2022-07-10T01:12:03;3.57;;;1.73;;
12910;SDS011;6523;49.758;6.120;2022-07-10T01:14:29;3.67;;;2.00;;
12910;SDS011;6523;49.758;6.120;2022-07-10T01:16:56;4.40;;;1.90;;
12910;SDS011;6523;49.758;6.120;2022-07-10T01:19:25;2.03;;;1.83;;
12910;SDS011;6523;49.758;6.120;2022-07-10T01:21:51;2.80;;;1.80;;
12910;SDS011;6523;49.758;6.120;2022-07-10T01:24:17;3.20;;;1.47;;
12910;SDS011;6523;49.758;6.120;2022-07-10T01:26:42;4.30;;;1.77;;
12910;SDS011;6523;49.758;6.120;2022-07-10T01:29:08;2.97;;;1.40;;
12910;SDS011;6523;49.758;6.120;2022-07-10T01:31:35;4.53;;;1.63;;
12910;SDS011;6523;49.758;6.120;2022-07-10T01:34:02;4.13;;;1.67;;
12910;SDS011;6523;49.758;6.120;2022-07-10T01:36:31;2.00;;;1.77;;
12910;SDS011;6523;49.758;6.120;2022-07-10T01:38:57;2.60;;;1.40;;
12910;SDS011;6523;49.758;6.120;2022-07-10T01:41:23;2.80;;;1.40;;
12910;SDS011;6523;49.758;6.120;2022-07-10T01:43:50;1.80;;;1.47;;
12910;SDS011;6523;49.758;6.120;2022-07-10T01:46:16;3.90;;;1.70;;
12910;SDS011;6523;49.758;6.120;2022-07-10T01:48:41;3.27;;;1.67;;
12910;SDS011;6523;49.758;6.120;2022-07-10T01:51:08;2.33;;;1.60;;
12910;SDS011;6523;49.758;6.120;2022-07-10T01:53:35;3.80;;;1.50;;
12910;SDS011;6523;49.758;6.120;2022-07-10T01:56:03;2.63;;;1.30;;
12910;SDS011;6523;49.758;6.120;2022-07-10T01:58:30;1.77;;;1.47;;
12910;SDS011;6523;49.758;6.120;2022-07-10T02:00:56;2.13;;;1.53;;
12910;SDS011;6523;49.758;6.120;2022-07-10T02:03:22;2.80;;;1.43;;
12910;SDS011;6523;49.758;6.120;2022-07-10T02:06:06;2.10;;;1.50;;
12910;SDS011;6523;49.758;6.120;2022-07-10T02:08:32;3.60;;;1.67;;
12910;SDS011;6523;49.758;6.120;2022-07-10T02:10:58;2.87;;;1.77;;
12910;SDS011;6523;49.758;6.120;2022-07-10T02:13:24;3.57;;;1.47;;
12910;SDS011;6523;49.758;6.120;2022-07-10T02:15:52;4.30;;;1.77;;
12910;SDS011;6523;49.758;6.120;2022-07-10T02:18:19;2.93;;;1.27;;
12910;SDS011;6523;49.758;6.120;2022-07-10T02:20:44;2.80;;;1.70;;
12910;SDS011;6523;49.758;6.120;2022-07-10T02:23:11;1.73;;;1.20;;
12910;SDS011;6523;49.758;6.120;2022-07-10T02:25:37;1.33;;;1.23;;
12910;SDS011;6523;49.758;6.120;2022-07-10T02:28:02;2.07;;;1.37;;
12910;SDS011;6523;49.758;6.120;2022-07-10T02:30:28;3.57;;;1.23;;
12910;SDS011;6523;49.758;6.120;2022-07-10T02:32:54;2.50;;;1.93;;
12910;SDS011;6523;49.758;6.120;2022-07-10T02:35:19;1.57;;;1.47;;
12910;SDS011;6523;49.758;6.120;2022-07-10T02:37:45;6.17;;;1.70;;
12910;SDS011;6523;49.758;6.120;2022-07-10T02:40:10;1.40;;;1.10;;
12910;SDS011;6523;49.758;6.120;2022-07-10T02:42:36;3.77;;;1.50;;
12910;SDS011;6523;49.758;6.120;2022-07-10T02:45:02;4.83;;;1.30;;
12910;SDS011;6523;49.758;6.120;2022-07-10T02:47:28;2.03;;;1.30;;
12910;SDS011;6523;49.758;6.120;2022-07-10T02:49:54;2.13;;;1.40;;
12910;SDS011;6523;49.758;6.120;2022-07-10T02:52:20;3.50;;;1.40;;
12910;SDS011;6523;49.758;6.120;2022-07-10T02:54:46;3.67;;;1.90;;
12910;SDS011;6523;49.758;6.120;2022-07-10T02:57:11;2.33;;;1.47;;
12910;SDS011;6523;49.758;6.120;2022-07-10T02:59:37;3.77;;;1.67;;
12910;SDS011;6523;49.758;6.120;2022-07-10T03:02:03;3.33;;;1.40;;
12910;SDS011;6523;49.758;6.120;2022-07-10T03:04:29;4.33;;;1.60;;
12910;SDS011;6523;49.758;6.120;2022-07-10T03:06:54;2.57;;;1.50;;
12910;SDS011;6523;49.758;6.120;2022-07-10T03:09:20;2.97;;;1.50;;
12910;SDS011;6523;49.758;6.120;2022-07-10T03:11:45;1.70;;;1.47;;
12910;SDS011;6523;49.758;6.120;2022-07-10T03:14:11;1.47;;;1.33;;
12910;SDS011;6523;49.758;6.120;2022-07-10T03:16:36;4.40;;;1.80;;
12910;SDS011;6523;49.758;6.120;2022-07-10T03:19:02;3.50;;;1.57;;
12910;SDS011;6523;49.758;6.120;2022-07-10T03:21:28;2.60;;;1.60;;
12910;SDS011;6523;49.758;6.120;2022-07-10T03:23:55;4.77;;;1.77;;
12910;SDS011;6523;49.758;6.120;2022-07-10T03:26:21;4.03;;;1.40;;
12910;SDS011;6523;49.758;6.120;2022-07-10T03:28:47;2.20;;;1.40;;
12910;SDS011;6523;49.758;6.120;2022-07-10T03:31:12;2.80;;;1.33;;
12910;SDS011;6523;49.758;6.120;2022-07-10T03:33:38;2.90;;;1.40;;
12910;SDS011;6523;49.758;6.120;2022-07-10T03:36:04;1.90;;;1.40;;
12910;SDS011;6523;49.758;6.120;2022-07-10T03:38:30;1.83;;;1.73;;
12910;SDS011;6523;49.758;6.120;2022-07-10T03:40:56;2.87;;;1.53;;
12910;SDS011;6523;49.758;6.120;2022-07-10T03:43:21;1.87;;;1.60;;
12910;SDS011;6523;49.758;6.120;2022-07-10T03:45:47;1.53;;;1.43;;
12910;SDS011;6523;49.758;6.120;2022-07-10T03:48:12;3.17;;;1.40;;
12910;SDS011;6523;49.758;6.120;2022-07-10T03:50:38;2.37;;;1.40;;
12910;SDS011;6523;49.758;6.120;2022-07-10T03:53:04;3.37;;;1.70;;
12910;SDS011;6523;49.758;6.120;2022-07-10T03:55:29;2.37;;;1.67;;
12910;SDS011;6523;49.758;6.120;2022-07-10T03:57:55;2.50;;;1.60;;
12910;SDS011;6523;49.758;6.120;2022-07-10T04:00:23;2.50;;;1.87;;
12910;SDS011;6523;49.758;6.120;2022-07-10T04:02:56;3.20;;;1.50;;
12910;SDS011;6523;49.758;6.120;2022-07-10T04:05:25;2.70;;;1.60;;
12910;SDS011;6523;49.758;6.120;2022-07-10T04:07:52;3.30;;;1.57;;
12910;SDS011;6523;49.758;6.120;2022-07-10T04:10:18;4.50;;;1.63;;
12910;SDS011;6523;49.758;6.120;2022-07-10T04:12:44;5.07;;;1.80;;
12910;SDS011;6523;49.758;6.120;2022-07-10T04:15:10;2.63;;;1.67;;
12910;SDS011;6523;49.758;6.120;2022-07-10T04:17:36;3.07;;;1.50;;
12910;SDS011;6523;49.758;6.120;2022-07-10T04:20:02;2.33;;;1.40;;
12910;SDS011;6523;49.758;6.120;2022-07-10T04:22:28;3.63;;;1.80;;
12910;SDS011;6523;49.758;6.120;2022-07-10T04:24:54;3.90;;;1.73;;
12910;SDS011;6523;49.758;6.120;2022-07-10T04:27:20;5.13;;;2.10;;
12910;SDS011;6523;49.758;6.120;2022-07-10T04:29:45;4.37;;;1.73;;
12910;SDS011;6523;49.758;6.120;2022-07-10T04:32:12;4.27;;;1.67;;
12910;SDS011;6523;49.758;6.120;2022-07-10T04:34:37;5.73;;;1.70;;
12910;SDS011;6523;49.758;6.120;2022-07-10T04:37:03;3.40;;;1.73;;
12910;SDS011;6523;49.758;6.120;2022-07-10T04:39:30;4.70;;;1.90;;
12910;SDS011;6523;49.758;6.120;2022-07-10T04:41:56;1.83;;;1.70;;
12910;SDS011;6523;49.758;6.120;2022-07-10T04:44:21;6.67;;;2.13;;
12910;SDS011;6523;49.758;6.120;2022-07-10T04:46:47;2.77;;;1.70;;
12910;SDS011;6523;49.758;6.120;2022-07-10T04:49:13;3.83;;;1.63;;
12910;SDS011;6523;49.758;6.120;2022-07-10T04:51:38;3.53;;;1.83;;
12910;SDS011;6523;49.758;6.120;2022-07-10T04:54:04;3.83;;;1.97;;
12910;SDS011;6523;49.758;6.120;2022-07-10T04:56:30;2.33;;;1.80;;
12910;SDS011;6523;49.758;6.120;2022-07-10T04:58:55;2.43;;;1.80;;
12910;SDS011;6523;49.758;6.120;2022-07-10T05:01:21;2.30;;;1.70;;
12910;SDS011;6523;49.758;6.120;2022-07-10T05:03:47;2.47;;;1.70;;
12910;SDS011;6523;49.758;6.120;2022-07-10T05:06:12;3.57;;;1.80;;
12910;SDS011;6523;49.758;6.120;2022-07-10T05:08:38;2.67;;;1.60;;
12910;SDS011;6523;49.758;6.120;2022-07-10T05:11:04;1.87;;;1.77;;
12910;SDS011;6523;49.758;6.120;2022-07-10T05:13:30;2.60;;;1.90;;
12910;SDS011;6523;49.758;6.120;2022-07-10T05:15:55;2.80;;;1.87;;
12910;SDS011;6523;49.758;6.120;2022-07-10T05:18:21;3.40;;;1.87;;
12910;SDS011;6523;49.758;6.120;2022-07-10T05:20:47;2.90;;;1.80;;
12910;SDS011;6523;49.758;6.120;2022-07-10T05:23:14;2.83;;;1.70;;
12910;SDS011;6523;49.758;6.120;2022-07-10T05:25:40;3.27;;;1.90;;
12910;SDS011;6523;49.758;6.120;2022-07-10T05:28:06;3.03;;;1.80;;
12910;SDS011;6523;49.758;6.120;2022-07-10T05:30:32;3.93;;;1.93;;
12910;SDS011;6523;49.758;6.120;2022-07-10T05:32:58;3.57;;;2.20;;
12910;SDS011;6523;49.758;6.120;2022-07-10T05:35:25;4.27;;;1.83;;
12910;SDS011;6523;49.758;6.120;2022-07-10T05:37:51;5.37;;;1.97;;
12910;SDS011;6523;49.758;6.120;2022-07-10T05:40:18;3.00;;;1.70;;
12910;SDS011;6523;49.758;6.120;2022-07-10T05:42:44;3.73;;;1.87;;
12910;SDS011;6523;49.758;6.120;2022-07-10T05:45:10;4.03;;;2.10;;
12910;SDS011;6523;49.758;6.120;2022-07-10T05:47:36;5.43;;;2.10;;
12910;SDS011;6523;49.758;6.120;2022-07-10T05:50:03;4.87;;;1.70;;
12910;SDS011;6523;49.758;6.120;2022-07-10T05:52:29;4.00;;;2.13;;
12910;SDS011;6523;49.758;6.120;2022-07-10T05:54:56;3.80;;;1.80;;
12910;SDS011;6523;49.758;6.120;2022-07-10T05:57:21;5.60;;;1.77;;
12910;SDS011;6523;49.758;6.120;2022-07-10T05:59:47;3.07;;;1.77;;
12910;SDS011;6523;49.758;6.120;2022-07-10T06:02:13;4.43;;;1.57;;
12910;SDS011;6523;49.758;6.120;2022-07-10T06:04:38;4.23;;;1.93;;
12910;SDS011;6523;49.758;6.120;2022-07-10T06:07:04;8.30;;;2.00;;
12910;SDS011;6523;49.758;6.120;2022-07-10T06:09:30;3.57;;;1.70;;
12910;SDS011;6523;49.758;6.120;2022-07-10T06:11:56;3.80;;;1.60;;
12910;SDS011;6523;49.758;6.120;2022-07-10T06:14:21;3.13;;;1.53;;
12910;SDS011;6523;49.758;6.120;2022-07-10T06:16:47;3.43;;;1.80;;
12910;SDS011;6523;49.758;6.120;2022-07-10T06:19:12;2.73;;;1.40;;
12910;SDS011;6523;49.758;6.120;2022-07-10T06:21:38;4.07;;;1.57;;
12910;SDS011;6523;49.758;6.120;2022-07-10T06:24:03;2.77;;;1.23;;
12910;SDS011;6523;49.758;6.120;2022-07-10T06:26:29;3.43;;;1.40;;
12910;SDS011;6523;49.758;6.120;2022-07-10T06:28:55;4.70;;;1.50;;
12910;SDS011;6523;49.758;6.120;2022-07-10T06:31:20;3.33;;;1.40;;
12910;SDS011;6523;49.758;6.120;2022-07-10T06:33:46;4.50;;;1.50;;
12910;SDS011;6523;49.758;6.120;2022-07-10T06:36:12;3.13;;;1.60;;
12910;SDS011;6523;49.758;6.120;2022-07-10T06:38:37;4.13;;;1.57;;
12910;SDS011;6523;49.758;6.120;2022-07-10T06:41:03;4.17;;;1.30;;
12910;SDS011;6523;49.758;6.120;2022-07-10T06:43:29;3.57;;;1.43;;
12910;SDS011;6523;49.758;6.120;2022-07-10T06:45:55;2.30;;;1.20;;
12910;SDS011;6523;49.758;6.120;2022-07-10T06:48:21;3.17;;;1.50;;
12910;SDS011;6523;49.758;6.120;2022-07-10T06:50:47;3.87;;;1.57;;
12910;SDS011;6523;49.758;6.120;2022-07-10T06:53:12;2.70;;;1.40;;
12910;SDS011;6523;49.758;6.120;2022-07-10T06:55:38;2.67;;;0.93;;
12910;SDS011;6523;49.758;6.120;2022-07-10T06:58:04;3.60;;;1.50;;
12910;SDS011;6523;49.758;6.120;2022-07-10T07:00:30;4.20;;;1.40;;
12910;SDS011;6523;49.758;6.120;2022-07-10T07:02:55;3.00;;;1.37;;
12910;SDS011;6523;49.758;6.120;2022-07-10T07:05:21;2.40;;;1.00;;
12910;SDS011;6523;49.758;6.120;2022-07-10T07:07:46;3.73;;;1.30;;
12910;SDS011;6523;49.758;6.120;2022-07-10T07:10:12;4.13;;;1.70;;
12910;SDS011;6523;49.758;6.120;2022-07-10T07:12:38;4.20;;;1.20;;
12910;SDS011;6523;49.758;6.120;2022-07-10T07:15:04;3.07;;;1.47;;
12910;SDS011;6523;49.758;6.120;2022-07-10T07:17:31;5.40;;;1.10;;
12910;SDS011;6523;49.758;6.120;2022-07-10T07:20:00;1.70;;;1.00;;
12910;SDS011;6523;49.758;6.120;2022-07-10T07:22:45;2.23;;;1.10;;
12910;SDS011;6523;49.758;6.120;2022-07-10T07:25:30;2.33;;;1.00;;
12910;SDS011;6523;49.758;6.120;2022-07-10T07:27:55;2.13;;;1.10;;
12910;SDS011;6523;49.758;6.120;2022-07-10T07:30:21;2.03;;;0.90;;
12910;SDS011;6523;49.758;6.120;2022-07-10T07:32:47;5.23;;;1.20;;
12910;SDS011;6523;49.758;6.120;2022-07-10T07:35:13;2.27;;;1.10;;
12910;SDS011;6523;49.758;6.120;2022-07-10T07:40:11;3.97;;;1.27;;
12910;SDS011;6523;49.758;6.120;2022-07-10T07:42:38;2.87;;;1.07;;
12910;SDS011;6523;49.758;6.120;2022-07-10T07:45:06;2.10;;;1.10;;
12910;SDS011;6523;49.758;6.120;2022-07-10T07:47:42;4.43;;;1.30;;
12910;SDS011;6523;49.758;6.120;2022-07-10T07:50:12;2.93;;;1.10;;
12910;SDS011;6523;49.758;6.120;2022-07-10T07:52:39;3.40;;;1.30;;
12910;SDS011;6523;49.758;6.120;2022-07-10T07:55:05;2.30;;;0.80;;
12910;SDS011;6523;49.758;6.120;2022-07-10T07:57:30;2.63;;;1.07;;
12910;SDS011;6523;49.758;6.120;2022-07-10T07:59:56;1.57;;;1.13;;
12910;SDS011;6523;49.758;6.120;2022-07-10T08:02:22;3.97;;;1.10;;
12910;SDS011;6523;49.758;6.120;2022-07-10T08:04:47;2.10;;;1.20;;
12910;SDS011;6523;49.758;6.120;2022-07-10T08:07:13;1.73;;;0.93;;
12910;SDS011;6523;49.758;6.120;2022-07-10T08:09:39;1.40;;;0.80;;
12910;SDS011;6523;49.758;6.120;2022-07-10T08:12:04;6.13;;;1.13;;
12910;SDS011;6523;49.758;6.120;2022-07-10T08:14:30;3.00;;;1.10;;
12910;SDS011;6523;49.758;6.120;2022-07-10T08:16:56;2.97;;;1.13;;
12910;SDS011;6523;49.758;6.120;2022-07-10T08:19:21;1.83;;;1.00;;
12910;SDS011;6523;49.758;6.120;2022-07-10T08:21:47;1.47;;;0.80;;
12910;SDS011;6523;49.758;6.120;2022-07-10T08:24:13;2.60;;;0.90;;
12910;SDS011;6523;49.758;6.120;2022-07-10T08:26:39;1.77;;;1.00;;
12910;SDS011;6523;49.758;6.120;2022-07-10T08:29:05;2.50;;;1.10;;
12910;SDS011;6523;49.758;6.120;2022-07-10T08:31:31;1.83;;;1.00;;
12910;SDS011;6523;49.758;6.120;2022-07-10T08:33:58;2.87;;;1.23;;
12910;SDS011;6523;49.758;6.120;2022-07-10T08:36:24;2.63;;;1.40;;
12910;SDS011;6523;49.758;6.120;2022-07-10T08:38:51;1.50;;;1.00;;
12910;SDS011;6523;49.758;6.120;2022-07-10T08:41:19;2.23;;;0.90;;
12910;SDS011;6523;49.758;6.120;2022-07-10T08:43:50;3.80;;;1.20;;
12910;SDS011;6523;49.758;6.120;2022-07-10T08:46:15;2.90;;;1.00;;
12910;SDS011;6523;49.758;6.120;2022-07-10T08:48:43;3.33;;;1.57;;
12910;SDS011;6523;49.758;6.120;2022-07-10T08:51:13;1.30;;;0.90;;
12910;SDS011;6523;49.758;6.120;2022-07-10T08:53:56;4.03;;;1.40;;
12910;SDS011;6523;49.758;6.120;2022-07-10T08:56:24;2.77;;;1.20;;
12910;SDS011;6523;49.758;6.120;2022-07-10T08:58:50;3.60;;;1.20;;
12910;SDS011;6523;49.758;6.120;2022-07-10T09:01:18;2.40;;;1.10;;
12910;SDS011;6523;49.758;6.120;2022-07-10T09:03:48;2.63;;;1.00;;
12910;SDS011;6523;49.758;6.120;2022-07-10T09:06:15;3.20;;;1.20;;
12910;SDS011;6523;49.758;6.120;2022-07-10T09:08:44;2.63;;;1.17;;
12910;SDS011;6523;49.758;6.120;2022-07-10T09:11:31;3.27;;;1.10;;
12910;SDS011;6523;49.758;6.120;2022-07-10T09:14:02;2.23;;;1.50;;
12910;SDS011;6523;49.758;6.120;2022-07-10T09:18:56;1.33;;;1.00;;
12910;SDS011;6523;49.758;6.120;2022-07-10T09:21:22;2.30;;;1.00;;
12910;SDS011;6523;49.758;6.120;2022-07-10T09:23:48;3.50;;;1.20;;
12910;SDS011;6523;49.758;6.120;2022-07-10T09:26:14;2.20;;;1.20;;
12910;SDS011;6523;49.758;6.120;2022-07-10T09:28:40;1.73;;;0.97;;
12910;SDS011;6523;49.758;6.120;2022-07-10T09:31:06;1.30;;;1.07;;
12910;SDS011;6523;49.758;6.120;2022-07-10T09:33:32;4.30;;;1.10;;
12910;SDS011;6523;49.758;6.120;2022-07-10T09:46:22;3.43;;;1.20;;
12910;SDS011;6523;49.758;6.120;2022-07-10T09:49:00;3.93;;;1.03;;
12910;SDS011;6523;49.758;6.120;2022-07-10T09:51:34;2.80;;;1.00;;
12910;SDS011;6523;49.758;6.120;2022-07-10T09:54:02;2.30;;;1.10;;
12910;SDS011;6523;49.758;6.120;2022-07-10T09:56:33;3.03;;;1.27;;
12910;SDS011;6523;49.758;6.120;2022-07-10T09:59:06;2.93;;;1.20;;
12910;SDS011;6523;49.758;6.120;2022-07-10T10:01:35;2.07;;;1.17;;
12910;SDS011;6523;49.758;6.120;2022-07-10T10:04:02;2.57;;;1.00;;
12910;SDS011;6523;49.758;6.120;2022-07-10T10:06:29;2.47;;;0.97;;
12910;SDS011;6523;49.758;6.120;2022-07-10T10:11:44;2.17;;;1.20;;
12910;SDS011;6523;49.758;6.120;2022-07-10T10:14:11;2.17;;;1.00;;
12910;SDS011;6523;49.758;6.120;2022-07-10T10:16:42;4.10;;;1.20;;
12910;SDS011;6523;49.758;6.120;2022-07-10T10:19:09;2.50;;;1.30;;
12910;SDS011;6523;49.758;6.120;2022-07-10T10:21:55;4.57;;;1.17;;
12910;SDS011;6523;49.758;6.120;2022-07-10T10:24:22;1.77;;;1.00;;
12910;SDS011;6523;49.758;6.120;2022-07-10T10:26:48;4.33;;;1.33;;
12910;SDS011;6523;49.758;6.120;2022-07-10T10:29:14;2.27;;;1.10;;
12910;SDS011;6523;49.758;6.120;2022-07-10T10:31:40;2.60;;;1.27;;
12910;SDS011;6523;49.758;6.120;2022-07-10T10:34:07;1.80;;;1.00;;
12910;SDS011;6523;49.758;6.120;2022-07-10T10:39:19;2.73;;;0.90;;
12910;SDS011;6523;49.758;6.120;2022-07-10T10:41:47;3.53;;;1.70;;
12910;SDS011;6523;49.758;6.120;2022-07-10T10:44:20;2.43;;;1.20;;
12910;SDS011;6523;49.758;6.120;2022-07-10T10:49:18;2.53;;;1.23;;
12910;SDS011;6523;49.758;6.120;2022-07-10T10:51:57;2.03;;;1.30;;
12910;SDS011;6523;49.758;6.120;2022-07-10T10:54:59;3.47;;;1.17;;
12910;SDS011;6523;49.758;6.120;2022-07-10T10:57:46;3.20;;;1.30;;
12910;SDS011;6523;49.758;6.120;2022-07-10T11:00:14;1.40;;;1.03;;
12910;SDS011;6523;49.758;6.120;2022-07-10T11:03:00;1.10;;;1.00;;
12910;SDS011;6523;49.758;6.120;2022-07-10T11:05:41;1.97;;;1.20;;
12910;SDS011;6523;49.758;6.120;2022-07-10T11:08:08;3.00;;;1.40;;
12910;SDS011;6523;49.758;6.120;2022-07-10T11:10:45;2.27;;;1.33;;
12910;SDS011;6523;49.758;6.120;2022-07-10T11:13:12;2.77;;;1.10;;
12910;SDS011;6523;49.758;6.120;2022-07-10T11:15:40;1.90;;;1.30;;
12910;SDS011;6523;49.758;6.120;2022-07-10T11:18:10;2.67;;;1.10;;
12910;SDS011;6523;49.758;6.120;2022-07-10T11:20:38;2.40;;;1.23;;
12910;SDS011;6523;49.758;6.120;2022-07-10T11:26:10;3.00;;;1.27;;
12910;SDS011;6523;49.758;6.120;2022-07-10T11:28:54;2.70;;;1.07;;
12910;SDS011;6523;49.758;6.120;2022-07-10T11:31:23;1.67;;;1.40;;
12910;SDS011;6523;49.758;6.120;2022-07-10T11:33:52;1.57;;;1.13;;
12910;SDS011;6523;49.758;6.120;2022-07-10T11:36:21;2.47;;;1.27;;
12910;SDS011;6523;49.758;6.120;2022-07-10T11:38:57;2.77;;;1.20;;
12910;SDS011;6523;49.758;6.120;2022-07-10T11:41:24;1.77;;;1.10;;
12910;SDS011;6523;49.758;6.120;2022-07-10T11:43:50;2.97;;;1.20;;
12910;SDS011;6523;49.758;6.120;2022-07-10T11:46:17;2.57;;;1.10;;
12910;SDS011;6523;49.758;6.120;2022-07-10T11:48:45;2.20;;;1.20;;
12910;SDS011;6523;49.758;6.120;2022-07-10T11:51:20;2.50;;;1.30;;
12910;SDS011;6523;49.758;6.120;2022-07-10T11:53:56;1.50;;;1.33;;
12910;SDS011;6523;49.758;6.120;2022-07-10T11:56:27;2.83;;;1.00;;
12910;SDS011;6523;49.758;6.120;2022-07-10T12:01:26;1.60;;;1.23;;
12910;SDS011;6523;49.758;6.120;2022-07-10T12:03:54;2.30;;;1.13;;
12910;SDS011;6523;49.758;6.120;2022-07-10T12:06:24;2.83;;;1.50;;
12910;SDS011;6523;49.758;6.120;2022-07-10T12:08:51;1.47;;;1.20;;
12910;SDS011;6523;49.758;6.120;2022-07-10T12:11:17;1.33;;;1.23;;
12910;SDS011;6523;49.758;6.120;2022-07-10T12:13:45;2.33;;;1.20;;
12910;SDS011;6523;49.758;6.120;2022-07-10T12:16:12;2.07;;;1.00;;
12910;SDS011;6523;49.758;6.120;2022-07-10T12:18:39;2.60;;;1.40;;
12910;SDS011;6523;49.758;6.120;2022-07-10T12:21:06;1.93;;;1.33;;
12910;SDS011;6523;49.758;6.120;2022-07-10T12:23:36;1.60;;;1.00;;
12910;SDS011;6523;49.758;6.120;2022-07-10T12:26:07;2.40;;;1.00;;
12910;SDS011;6523;49.758;6.120;2022-07-10T12:28:51;1.90;;;1.03;;
12910;SDS011;6523;49.758;6.120;2022-07-10T12:31:37;3.03;;;1.10;;
12910;SDS011;6523;49.758;6.120;2022-07-10T12:34:04;2.90;;;1.20;;
12910;SDS011;6523;49.758;6.120;2022-07-10T12:36:46;2.00;;;1.27;;
12910;SDS011;6523;49.758;6.120;2022-07-10T12:39:13;1.93;;;1.33;;
12910;SDS011;6523;49.758;6.120;2022-07-10T12:41:55;2.27;;;1.03;;
12910;SDS011;6523;49.758;6.120;2022-07-10T12:47:08;1.17;;;1.00;;
12910;SDS011;6523;49.758;6.120;2022-07-10T12:55:15;1.60;;;0.90;;
12910;SDS011;6523;49.758;6.120;2022-07-10T13:00:15;2.13;;;1.20;;
12910;SDS011;6523;49.758;6.120;2022-07-10T13:03:05;1.47;;;0.80;;
12910;SDS011;6523;49.758;6.120;2022-07-10T13:10:35;1.83;;;0.83;;
12910;SDS011;6523;49.758;6.120;2022-07-10T13:13:01;1.93;;;0.90;;
12910;SDS011;6523;49.758;6.120;2022-07-10T13:15:30;1.57;;;0.80;;
12910;SDS011;6523;49.758;6.120;2022-07-10T13:17:56;1.37;;;0.80;;
12910;SDS011;6523;49.758;6.120;2022-07-10T13:20:22;1.00;;;0.90;;
12910;SDS011;6523;49.758;6.120;2022-07-10T13:22:48;1.40;;;0.77;;
12910;SDS011;6523;49.758;6.120;2022-07-10T13:25:14;1.43;;;0.87;;
12910;SDS011;6523;49.758;6.120;2022-07-10T13:27:40;2.60;;;1.10;;
12910;SDS011;6523;49.758;6.120;2022-07-10T13:30:07;1.80;;;1.00;;
12910;SDS011;6523;49.758;6.120;2022-07-10T13:32:33;1.63;;;0.90;;
12910;SDS011;6523;49.758;6.120;2022-07-10T13:34:59;2.50;;;0.87;;
12910;SDS011;6523;49.758;6.120;2022-07-10T13:37:24;1.80;;;0.83;;
12910;SDS011;6523;49.758;6.120;2022-07-10T13:39:50;1.73;;;1.00;;
12910;SDS011;6523;49.758;6.120;2022-07-10T13:42:16;1.00;;;0.80;;
12910;SDS011;6523;49.758;6.120;2022-07-10T13:44:41;0.77;;;0.67;;
12910;SDS011;6523;49.758;6.120;2022-07-10T13:47:07;1.47;;;0.73;;
12910;SDS011;6523;49.758;6.120;2022-07-10T13:49:33;1.53;;;0.90;;
12910;SDS011;6523;49.758;6.120;2022-07-10T13:51:59;0.93;;;0.90;;
12910;SDS011;6523;49.758;6.120;2022-07-10T13:54:24;1.43;;;0.80;;
12910;SDS011;6523;49.758;6.120;2022-07-10T13:56:50;0.97;;;0.87;;
12910;SDS011;6523;49.758;6.120;2022-07-10T13:59:16;2.27;;;0.70;;
12910;SDS011;6523;49.758;6.120;2022-07-10T14:01:41;1.10;;;0.70;;
12910;SDS011;6523;49.758;6.120;2022-07-10T14:04:07;1.53;;;0.97;;
12910;SDS011;6523;49.758;6.120;2022-07-10T14:06:33;0.90;;;0.77;;
12910;SDS011;6523;49.758;6.120;2022-07-10T14:08:58;2.27;;;0.80;;
12910;SDS011;6523;49.758;6.120;2022-07-10T14:11:24;1.37;;;0.60;;
12910;SDS011;6523;49.758;6.120;2022-07-10T14:13:50;2.17;;;0.73;;
12910;SDS011;6523;49.758;6.120;2022-07-10T14:16:16;0.83;;;0.60;;
12910;SDS011;6523;49.758;6.120;2022-07-10T14:18:41;0.50;;;0.50;;
12910;SDS011;6523;49.758;6.120;2022-07-10T14:21:10;0.80;;;0.63;;
12910;SDS011;6523;49.758;6.120;2022-07-10T14:23:38;0.70;;;0.60;;
12910;SDS011;6523;49.758;6.120;2022-07-10T14:26:09;4.03;;;0.77;;
12910;SDS011;6523;49.758;6.120;2022-07-10T14:28:35;0.90;;;0.63;;
12910;SDS011;6523;49.758;6.120;2022-07-10T14:31:01;0.50;;;0.50;;
12910;SDS011;6523;49.758;6.120;2022-07-10T14:33:29;2.00;;;0.83;;
12910;SDS011;6523;49.758;6.120;2022-07-10T14:35:55;1.83;;;0.60;;
12910;SDS011;6523;49.758;6.120;2022-07-10T14:38:21;0.73;;;0.50;;
12910;SDS011;6523;49.758;6.120;2022-07-10T14:40:47;1.77;;;0.70;;
12910;SDS011;6523;49.758;6.120;2022-07-10T14:43:13;0.80;;;0.60;;
12910;SDS011;6523;49.758;6.120;2022-07-10T14:45:38;0.60;;;0.60;;
12910;SDS011;6523;49.758;6.120;2022-07-10T14:48:04;1.43;;;0.50;;
12910;SDS011;6523;49.758;6.120;2022-07-10T14:50:30;1.00;;;0.60;;
12910;SDS011;6523;49.758;6.120;2022-07-10T14:52:55;0.93;;;0.60;;
12910;SDS011;6523;49.758;6.120;2022-07-10T14:55:22;0.87;;;0.50;;
12910;SDS011;6523;49.758;6.120;2022-07-10T14:57:48;1.67;;;0.50;;
12910;SDS011;6523;49.758;6.120;2022-07-10T15:00:14;1.27;;;0.80;;
12910;SDS011;6523;49.758;6.120;2022-07-10T15:02:41;1.60;;;0.50;;
12910;SDS011;6523;49.758;6.120;2022-07-10T15:05:07;1.80;;;0.60;;
12910;SDS011;6523;49.758;6.120;2022-07-10T15:07:33;1.40;;;1.13;;
12910;SDS011;6523;49.758;6.120;2022-07-10T15:09:58;0.73;;;0.70;;
12910;SDS011;6523;49.758;6.120;2022-07-10T15:12:24;2.37;;;0.80;;
12910;SDS011;6523;49.758;6.120;2022-07-10T15:14:49;1.50;;;0.87;;
12910;SDS011;6523;49.758;6.120;2022-07-10T15:17:15;2.27;;;0.90;;
12910;SDS011;6523;49.758;6.120;2022-07-10T15:19:40;1.47;;;0.70;;
12910;SDS011;6523;49.758;6.120;2022-07-10T15:22:06;0.67;;;0.67;;
12910;SDS011;6523;49.758;6.120;2022-07-10T15:24:32;1.03;;;0.77;;
12910;SDS011;6523;49.758;6.120;2022-07-10T15:26:57;2.10;;;0.97;;
12910;SDS011;6523;49.758;6.120;2022-07-10T15:29:23;0.87;;;0.80;;
12910;SDS011;6523;49.758;6.120;2022-07-10T15:31:51;1.23;;;0.80;;
12910;SDS011;6523;49.758;6.120;2022-07-10T15:34:17;1.10;;;0.80;;
12910;SDS011;6523;49.758;6.120;2022-07-10T15:36:43;1.07;;;0.90;;
12910;SDS011;6523;49.758;6.120;2022-07-10T15:39:11;1.47;;;0.83;;
12910;SDS011;6523;49.758;6.120;2022-07-10T15:41:38;2.23;;;0.93;;
12910;SDS011;6523;49.758;6.120;2022-07-10T15:44:05;1.10;;;0.70;;
12910;SDS011;6523;49.758;6.120;2022-07-10T15:46:31;1.27;;;0.90;;